sensor_id;sensor_type;location;lat;lon;timestamp;P1;durP1;ratioP1;P2;durP2;ratioP2
48651;SDS011;34442;52.362;-1.302;2024-01-07T00:00:27;6.03;;;3.38;;
48651;SDS011;34442;52.362;-1.302;2024-01-07T00:02:53;5.63;;;2.80;;
48651;SDS011;34442;52.362;-1.302;2024-01-07T00:05:18;6.30;;;3.35;;
48651;SDS011;34442;52.362;-1.302;2024-01-07T00:07:44;6.57;;;3.85;;
48651;SDS011;34442;52.362;-1.302;2024-01-07T00:10:09;7.05;;;3.35;;
48651;SDS011;34442;52.362;-1.302;2024-01-07T00:12:35;6.07;;;3.58;;
48651;SDS011;34442;52.362;-1.302;2024-01-07T00:15:00;6.13;;;3.00;;
48651;SDS011;34442;52.362;-1.302;2024-01-07T00:17:26;4.30;;;2.22;;
48651;SDS011;34442;52.362;-1.302;2024-01-07T00:19:51;5.40;;;2.90;;
48651;SDS011;34442;52.362;-1.302;2024-01-07T00:22:17;7.35;;;4.10;;
48651;SDS011;34442;52.362;-1.302;2024-01-07T00:24:43;6.72;;;3.83;;
48651;SDS011;34442;52.362;-1.302;2024-01-07T00:27:08;8.30;;;4.30;;
48651;SDS011;34442;52.362;-1.302;2024-01-07T00:29:34;7.05;;;3.70;;
48651;SDS011;34442;52.362;-1.302;2024-01-07T00:32:00;6.70;;;2.88;;
48651;SDS011;34442;52.362;-1.302;2024-01-07T00:34:26;7.18;;;4.13;;
48651;SDS011;34442;52.362;-1.302;2024-01-07T00:36:52;6.65;;;2.95;;
48651;SDS011;34442;52.362;-1.302;2024-01-07T00:39:17;5.60;;;2.60;;
48651;SDS011;34442;52.362;-1.302;2024-01-07T00:41:42;7.00;;;3.10;;
48651;SDS011;34442;52.362;-1.302;2024-01-07T00:44:08;7.45;;;3.33;;
48651;SDS011;34442;52.362;-1.302;2024-01-07T00:46:33;7.10;;;3.17;;
48651;SDS011;34442;52.362;-1.302;2024-01-07T00:48:59;6.13;;;3.22;;
48651;SDS011;34442;52.362;-1.302;2024-01-07T00:51:24;6.25;;;2.70;;
48651;SDS011;34442;52.362;-1.302;2024-01-07T00:53:49;5.80;;;2.38;;
48651;SDS011;34442;52.362;-1.302;2024-01-07T00:56:15;5.40;;;2.80;;
48651;SDS011;34442;52.362;-1.302;2024-01-07T00:58:40;8.68;;;3.90;;
48651;SDS011;34442;52.362;-1.302;2024-01-07T01:01:06;6.43;;;3.25;;
48651;SDS011;34442;52.362;-1.302;2024-01-07T01:03:34;5.57;;;2.88;;
48651;SDS011;34442;52.362;-1.302;2024-01-07T01:05:59;5.60;;;3.33;;
48651;SDS011;34442;52.362;-1.302;2024-01-07T01:08:25;5.93;;;3.03;;
48651;SDS011;34442;52.362;-1.302;2024-01-07T01:10:52;4.97;;;3.00;;
48651;SDS011;34442;52.362;-1.302;2024-01-07T01:13:17;6.38;;;3.33;;
48651;SDS011;34442;52.362;-1.302;2024-01-07T01:15:43;6.00;;;3.10;;
48651;SDS011;34442;52.362;-1.302;2024-01-07T01:18:08;7.78;;;4.75;;
48651;SDS011;34442;52.362;-1.302;2024-01-07T01:20:33;7.47;;;3.67;;
48651;SDS011;34442;52.362;-1.302;2024-01-07T01:22:59;7.05;;;3.95;;
48651;SDS011;34442;52.362;-1.302;2024-01-07T01:25:24;5.22;;;3.15;;
48651;SDS011;34442;52.362;-1.302;2024-01-07T01:27:51;8.88;;;4.35;;
48651;SDS011;34442;52.362;-1.302;2024-01-07T01:30:16;6.28;;;3.67;;
48651;SDS011;34442;52.362;-1.302;2024-01-07T01:32:42;5.90;;;3.50;;
48651;SDS011;34442;52.362;-1.302;2024-01-07T01:35:08;10.48;;;5.00;;
48651;SDS011;34442;52.362;-1.302;2024-01-07T01:37:33;5.45;;;3.25;;
48651;SDS011;34442;52.362;-1.302;2024-01-07T01:39:59;7.70;;;3.72;;
48651;SDS011;34442;52.362;-1.302;2024-01-07T01:42:24;5.90;;;3.28;;
48651;SDS011;34442;52.362;-1.302;2024-01-07T01:44:50;8.20;;;4.35;;
48651;SDS011;34442;52.362;-1.302;2024-01-07T01:47:17;5.85;;;3.63;;
48651;SDS011;34442;52.362;-1.302;2024-01-07T01:49:43;6.32;;;3.45;;
48651;SDS011;34442;52.362;-1.302;2024-01-07T01:52:10;6.03;;;3.58;;
48651;SDS011;34442;52.362;-1.302;2024-01-07T01:54:37;6.13;;;2.92;;
48651;SDS011;34442;52.362;-1.302;2024-01-07T01:57:02;7.07;;;3.22;;
48651;SDS011;34442;52.362;-1.302;2024-01-07T01:59:28;9.18;;;3.22;;
48651;SDS011;34442;52.362;-1.302;2024-01-07T02:01:53;5.40;;;2.85;;
48651;SDS011;34442;52.362;-1.302;2024-01-07T02:04:20;7.55;;;3.92;;
48651;SDS011;34442;52.362;-1.302;2024-01-07T02:06:45;5.32;;;2.97;;
48651;SDS011;34442;52.362;-1.302;2024-01-07T02:09:11;7.70;;;3.42;;
48651;SDS011;34442;52.362;-1.302;2024-01-07T02:11:36;5.30;;;2.75;;
48651;SDS011;34442;52.362;-1.302;2024-01-07T02:14:02;6.10;;;2.70;;
48651;SDS011;34442;52.362;-1.302;2024-01-07T02:16:27;5.85;;;2.63;;
48651;SDS011;34442;52.362;-1.302;2024-01-07T02:18:53;6.85;;;2.80;;
48651;SDS011;34442;52.362;-1.302;2024-01-07T02:21:18;7.38;;;2.88;;
48651;SDS011;34442;52.362;-1.302;2024-01-07T02:23:44;3.88;;;2.45;;
48651;SDS011;34442;52.362;-1.302;2024-01-07T02:26:09;4.88;;;2.38;;
48651;SDS011;34442;52.362;-1.302;2024-01-07T02:28:35;5.50;;;2.63;;
48651;SDS011;34442;52.362;-1.302;2024-01-07T02:31:00;6.53;;;3.42;;
48651;SDS011;34442;52.362;-1.302;2024-01-07T02:33:26;7.20;;;2.80;;
48651;SDS011;34442;52.362;-1.302;2024-01-07T02:35:51;5.10;;;2.50;;
48651;SDS011;34442;52.362;-1.302;2024-01-07T02:38:16;3.30;;;1.92;;
48651;SDS011;34442;52.362;-1.302;2024-01-07T02:40:42;4.40;;;2.15;;
48651;SDS011;34442;52.362;-1.302;2024-01-07T02:43:07;4.72;;;2.30;;
48651;SDS011;34442;52.362;-1.302;2024-01-07T02:45:33;4.15;;;2.22;;
48651;SDS011;34442;52.362;-1.302;2024-01-07T02:47:59;7.15;;;3.50;;
48651;SDS011;34442;52.362;-1.302;2024-01-07T02:50:24;6.32;;;2.75;;
48651;SDS011;34442;52.362;-1.302;2024-01-07T02:52:50;4.78;;;2.30;;
48651;SDS011;34442;52.362;-1.302;2024-01-07T02:55:15;5.93;;;3.47;;
48651;SDS011;34442;52.362;-1.302;2024-01-07T02:57:41;6.30;;;2.85;;
48651;SDS011;34442;52.362;-1.302;2024-01-07T03:00:06;6.43;;;3.45;;
48651;SDS011;34442;52.362;-1.302;2024-01-07T03:02:32;4.90;;;2.67;;
48651;SDS011;34442;52.362;-1.302;2024-01-07T03:04:58;4.60;;;2.30;;
48651;SDS011;34442;52.362;-1.302;2024-01-07T03:07:24;7.15;;;3.40;;
48651;SDS011;34442;52.362;-1.302;2024-01-07T03:09:49;6.25;;;3.75;;
48651;SDS011;34442;52.362;-1.302;2024-01-07T03:12:18;6.22;;;3.40;;
48651;SDS011;34442;52.362;-1.302;2024-01-07T03:14:43;5.25;;;2.55;;
48651;SDS011;34442;52.362;-1.302;2024-01-07T03:17:09;5.38;;;2.90;;
48651;SDS011;34442;52.362;-1.302;2024-01-07T03:19:37;3.80;;;2.25;;
48651;SDS011;34442;52.362;-1.302;2024-01-07T03:22:03;5.43;;;2.63;;
48651;SDS011;34442;52.362;-1.302;2024-01-07T03:24:28;4.63;;;2.67;;
48651;SDS011;34442;52.362;-1.302;2024-01-07T03:26:54;8.95;;;3.85;;
48651;SDS011;34442;52.362;-1.302;2024-01-07T03:29:19;4.65;;;2.60;;
48651;SDS011;34442;52.362;-1.302;2024-01-07T03:31:44;6.80;;;3.47;;
48651;SDS011;34442;52.362;-1.302;2024-01-07T03:34:10;5.75;;;3.15;;
48651;SDS011;34442;52.362;-1.302;2024-01-07T03:36:35;4.28;;;2.60;;
48651;SDS011;34442;52.362;-1.302;2024-01-07T03:39:01;5.30;;;2.40;;
48651;SDS011;34442;52.362;-1.302;2024-01-07T03:41:26;4.45;;;2.20;;
48651;SDS011;34442;52.362;-1.302;2024-01-07T03:43:51;6.55;;;3.13;;
48651;SDS011;34442;52.362;-1.302;2024-01-07T03:46:18;5.47;;;2.67;;
48651;SDS011;34442;52.362;-1.302;2024-01-07T03:48:43;5.28;;;2.55;;
48651;SDS011;34442;52.362;-1.302;2024-01-07T03:51:09;5.72;;;2.92;;
48651;SDS011;34442;52.362;-1.302;2024-01-07T03:53:35;6.63;;;3.40;;
48651;SDS011;34442;52.362;-1.302;2024-01-07T03:56:00;3.75;;;1.92;;
48651;SDS011;34442;52.362;-1.302;2024-01-07T03:58:26;4.75;;;2.53;;
48651;SDS011;34442;52.362;-1.302;2024-01-07T04:00:51;4.40;;;2.72;;
48651;SDS011;34442;52.362;-1.302;2024-01-07T04:03:16;4.88;;;2.63;;
48651;SDS011;34442;52.362;-1.302;2024-01-07T04:05:42;5.00;;;2.47;;
48651;SDS011;34442;52.362;-1.302;2024-01-07T04:08:10;5.88;;;3.20;;
48651;SDS011;34442;52.362;-1.302;2024-01-07T04:10:36;4.35;;;2.83;;
48651;SDS011;34442;52.362;-1.302;2024-01-07T04:13:02;9.32;;;3.90;;
48651;SDS011;34442;52.362;-1.302;2024-01-07T04:15:28;9.07;;;3.78;;
48651;SDS011;34442;52.362;-1.302;2024-01-07T04:17:54;6.57;;;2.55;;
48651;SDS011;34442;52.362;-1.302;2024-01-07T04:20:20;6.20;;;2.95;;
48651;SDS011;34442;52.362;-1.302;2024-01-07T04:22:45;4.22;;;2.33;;
48651;SDS011;34442;52.362;-1.302;2024-01-07T04:25:11;6.35;;;2.90;;
48651;SDS011;34442;52.362;-1.302;2024-01-07T04:27:37;5.05;;;1.88;;
48651;SDS011;34442;52.362;-1.302;2024-01-07T04:30:03;5.88;;;2.40;;
48651;SDS011;34442;52.362;-1.302;2024-01-07T04:32:30;5.38;;;2.47;;
48651;SDS011;34442;52.362;-1.302;2024-01-07T04:34:55;4.32;;;2.10;;
48651;SDS011;34442;52.362;-1.302;2024-01-07T04:37:22;6.97;;;2.42;;
48651;SDS011;34442;52.362;-1.302;2024-01-07T04:39:48;4.20;;;2.22;;
48651;SDS011;34442;52.362;-1.302;2024-01-07T04:42:14;5.00;;;2.20;;
48651;SDS011;34442;52.362;-1.302;2024-01-07T04:44:40;3.63;;;1.90;;
48651;SDS011;34442;52.362;-1.302;2024-01-07T04:47:21;4.57;;;2.10;;
48651;SDS011;34442;52.362;-1.302;2024-01-07T04:49:51;6.53;;;2.97;;
48651;SDS011;34442;52.362;-1.302;2024-01-07T04:52:16;9.85;;;3.20;;
48651;SDS011;34442;52.362;-1.302;2024-01-07T04:54:42;4.60;;;2.58;;
48651;SDS011;34442;52.362;-1.302;2024-01-07T04:57:07;5.78;;;3.08;;
48651;SDS011;34442;52.362;-1.302;2024-01-07T04:59:33;5.22;;;2.45;;
48651;SDS011;34442;52.362;-1.302;2024-01-07T05:01:58;6.82;;;3.20;;
48651;SDS011;34442;52.362;-1.302;2024-01-07T05:04:23;6.97;;;2.63;;
48651;SDS011;34442;52.362;-1.302;2024-01-07T05:06:49;4.55;;;2.42;;
48651;SDS011;34442;52.362;-1.302;2024-01-07T05:09:15;5.28;;;2.33;;
48651;SDS011;34442;52.362;-1.302;2024-01-07T05:11:40;8.30;;;2.50;;
48651;SDS011;34442;52.362;-1.302;2024-01-07T05:14:05;7.68;;;2.58;;
48651;SDS011;34442;52.362;-1.302;2024-01-07T05:16:31;4.15;;;1.73;;
48651;SDS011;34442;52.362;-1.302;2024-01-07T05:18:56;4.55;;;1.92;;
48651;SDS011;34442;52.362;-1.302;2024-01-07T05:21:22;4.05;;;1.90;;
48651;SDS011;34442;52.362;-1.302;2024-01-07T05:23:47;3.42;;;1.60;;
48651;SDS011;34442;52.362;-1.302;2024-01-07T05:26:13;3.95;;;1.83;;
48651;SDS011;34442;52.362;-1.302;2024-01-07T05:28:38;3.05;;;1.50;;
48651;SDS011;34442;52.362;-1.302;2024-01-07T05:31:03;5.50;;;1.95;;
48651;SDS011;34442;52.362;-1.302;2024-01-07T05:33:29;2.80;;;1.50;;
48651;SDS011;34442;52.362;-1.302;2024-01-07T05:35:54;3.38;;;1.60;;
48651;SDS011;34442;52.362;-1.302;2024-01-07T05:38:20;3.40;;;1.70;;
48651;SDS011;34442;52.362;-1.302;2024-01-07T05:40:45;4.13;;;1.90;;
48651;SDS011;34442;52.362;-1.302;2024-01-07T05:43:10;4.30;;;1.75;;
48651;SDS011;34442;52.362;-1.302;2024-01-07T05:45:36;5.20;;;2.15;;
48651;SDS011;34442;52.362;-1.302;2024-01-07T05:48:01;6.05;;;2.35;;
48651;SDS011;34442;52.362;-1.302;2024-01-07T05:50:27;2.25;;;1.15;;
48651;SDS011;34442;52.362;-1.302;2024-01-07T05:52:52;4.65;;;1.92;;
48651;SDS011;34442;52.362;-1.302;2024-01-07T05:55:17;3.30;;;1.45;;
48651;SDS011;34442;52.362;-1.302;2024-01-07T05:57:43;2.80;;;1.40;;
48651;SDS011;34442;52.362;-1.302;2024-01-07T06:00:08;1.88;;;1.10;;
48651;SDS011;34442;52.362;-1.302;2024-01-07T06:02:36;4.85;;;1.88;;
48651;SDS011;34442;52.362;-1.302;2024-01-07T06:05:02;4.95;;;1.60;;
48651;SDS011;34442;52.362;-1.302;2024-01-07T06:07:28;3.75;;;1.75;;
48651;SDS011;34442;52.362;-1.302;2024-01-07T06:09:53;3.05;;;1.40;;
48651;SDS011;34442;52.362;-1.302;2024-01-07T06:12:18;6.00;;;1.98;;
48651;SDS011;34442;52.362;-1.302;2024-01-07T06:14:44;5.65;;;1.88;;
48651;SDS011;34442;52.362;-1.302;2024-01-07T06:17:09;3.05;;;1.50;;
48651;SDS011;34442;52.362;-1.302;2024-01-07T06:19:35;4.10;;;1.50;;
48651;SDS011;34442;52.362;-1.302;2024-01-07T06:22:01;5.13;;;1.52;;
48651;SDS011;34442;52.362;-1.302;2024-01-07T06:24:26;3.33;;;1.38;;
48651;SDS011;34442;52.362;-1.302;2024-01-07T06:26:51;1.45;;;1.25;;
48651;SDS011;34442;52.362;-1.302;2024-01-07T06:29:17;3.53;;;1.35;;
48651;SDS011;34442;52.362;-1.302;2024-01-07T06:31:44;4.00;;;1.63;;
48651;SDS011;34442;52.362;-1.302;2024-01-07T06:34:14;3.63;;;1.95;;
48651;SDS011;34442;52.362;-1.302;2024-01-07T06:36:42;2.88;;;1.40;;
48651;SDS011;34442;52.362;-1.302;2024-01-07T06:39:08;3.22;;;1.65;;
48651;SDS011;34442;52.362;-1.302;2024-01-07T06:41:34;2.42;;;1.30;;
48651;SDS011;34442;52.362;-1.302;2024-01-07T06:44:00;5.68;;;1.60;;
48651;SDS011;34442;52.362;-1.302;2024-01-07T06:46:25;2.75;;;1.58;;
48651;SDS011;34442;52.362;-1.302;2024-01-07T06:48:51;3.42;;;1.60;;
48651;SDS011;34442;52.362;-1.302;2024-01-07T06:51:16;6.20;;;2.50;;
48651;SDS011;34442;52.362;-1.302;2024-01-07T06:53:41;2.65;;;1.70;;
48651;SDS011;34442;52.362;-1.302;2024-01-07T06:56:07;2.75;;;1.58;;
48651;SDS011;34442;52.362;-1.302;2024-01-07T06:58:32;2.75;;;1.35;;
48651;SDS011;34442;52.362;-1.302;2024-01-07T07:00:58;3.22;;;1.50;;
48651;SDS011;34442;52.362;-1.302;2024-01-07T07:03:23;3.78;;;1.67;;
48651;SDS011;34442;52.362;-1.302;2024-01-07T07:05:49;3.03;;;1.40;;
48651;SDS011;34442;52.362;-1.302;2024-01-07T07:08:14;4.28;;;1.77;;
48651;SDS011;34442;52.362;-1.302;2024-01-07T07:10:40;2.75;;;1.25;;
48651;SDS011;34442;52.362;-1.302;2024-01-07T07:13:05;4.68;;;1.80;;
48651;SDS011;34442;52.362;-1.302;2024-01-07T07:15:31;3.53;;;1.50;;
48651;SDS011;34442;52.362;-1.302;2024-01-07T07:17:56;2.60;;;1.40;;
48651;SDS011;34442;52.362;-1.302;2024-01-07T07:20:22;3.40;;;1.70;;
48651;SDS011;34442;52.362;-1.302;2024-01-07T07:22:47;4.80;;;1.63;;
48651;SDS011;34442;52.362;-1.302;2024-01-07T07:25:13;2.90;;;1.55;;
48651;SDS011;34442;52.362;-1.302;2024-01-07T07:27:38;2.75;;;1.45;;
48651;SDS011;34442;52.362;-1.302;2024-01-07T07:30:04;3.80;;;1.85;;
48651;SDS011;34442;52.362;-1.302;2024-01-07T07:32:30;3.45;;;1.65;;
48651;SDS011;34442;52.362;-1.302;2024-01-07T07:34:55;2.90;;;1.38;;
48651;SDS011;34442;52.362;-1.302;2024-01-07T07:37:21;1.90;;;1.08;;
48651;SDS011;34442;52.362;-1.302;2024-01-07T07:39:46;1.85;;;1.15;;
48651;SDS011;34442;52.362;-1.302;2024-01-07T07:42:12;1.83;;;1.30;;
48651;SDS011;34442;52.362;-1.302;2024-01-07T07:44:37;3.50;;;1.40;;
48651;SDS011;34442;52.362;-1.302;2024-01-07T07:47:04;2.80;;;1.38;;
48651;SDS011;34442;52.362;-1.302;2024-01-07T07:49:29;2.80;;;1.52;;
48651;SDS011;34442;52.362;-1.302;2024-01-07T07:51:55;2.08;;;1.27;;
48651;SDS011;34442;52.362;-1.302;2024-01-07T07:54:21;2.30;;;1.40;;
48651;SDS011;34442;52.362;-1.302;2024-01-07T07:56:47;2.88;;;1.73;;
48651;SDS011;34442;52.362;-1.302;2024-01-07T07:59:13;4.93;;;1.50;;
48651;SDS011;34442;52.362;-1.302;2024-01-07T08:01:38;2.58;;;1.40;;
48651;SDS011;34442;52.362;-1.302;2024-01-07T08:04:04;2.38;;;1.40;;
48651;SDS011;34442;52.362;-1.302;2024-01-07T08:06:30;8.18;;;2.22;;
48651;SDS011;34442;52.362;-1.302;2024-01-07T08:08:56;3.40;;;1.90;;
48651;SDS011;34442;52.362;-1.302;2024-01-07T08:11:21;2.70;;;1.30;;
48651;SDS011;34442;52.362;-1.302;2024-01-07T08:13:49;2.92;;;1.25;;
48651;SDS011;34442;52.362;-1.302;2024-01-07T08:16:15;2.28;;;1.20;;
48651;SDS011;34442;52.362;-1.302;2024-01-07T08:18:41;6.03;;;1.90;;
48651;SDS011;34442;52.362;-1.302;2024-01-07T08:21:06;4.32;;;1.77;;
48651;SDS011;34442;52.362;-1.302;2024-01-07T08:23:32;2.30;;;1.30;;
48651;SDS011;34442;52.362;-1.302;2024-01-07T08:25:57;3.03;;;1.42;;
48651;SDS011;34442;52.362;-1.302;2024-01-07T08:28:23;5.28;;;1.33;;
48651;SDS011;34442;52.362;-1.302;2024-01-07T08:30:48;2.60;;;1.45;;
48651;SDS011;34442;52.362;-1.302;2024-01-07T08:33:14;1.25;;;1.10;;
48651;SDS011;34442;52.362;-1.302;2024-01-07T08:35:40;1.77;;;1.25;;
48651;SDS011;34442;52.362;-1.302;2024-01-07T08:38:05;2.05;;;1.15;;
48651;SDS011;34442;52.362;-1.302;2024-01-07T08:40:31;4.95;;;1.63;;
48651;SDS011;34442;52.362;-1.302;2024-01-07T08:42:56;2.53;;;1.10;;
48651;SDS011;34442;52.362;-1.302;2024-01-07T08:45:22;3.03;;;1.20;;
48651;SDS011;34442;52.362;-1.302;2024-01-07T08:47:47;3.33;;;1.20;;
48651;SDS011;34442;52.362;-1.302;2024-01-07T08:50:13;2.35;;;1.23;;
48651;SDS011;34442;52.362;-1.302;2024-01-07T08:52:38;2.13;;;1.20;;
48651;SDS011;34442;52.362;-1.302;2024-01-07T08:55:04;3.63;;;1.20;;
48651;SDS011;34442;52.362;-1.302;2024-01-07T08:57:31;2.78;;;1.40;;
48651;SDS011;34442;52.362;-1.302;2024-01-07T08:59:57;1.55;;;1.00;;
48651;SDS011;34442;52.362;-1.302;2024-01-07T09:02:23;1.60;;;1.00;;
48651;SDS011;34442;52.362;-1.302;2024-01-07T09:04:48;2.80;;;1.38;;
48651;SDS011;34442;52.362;-1.302;2024-01-07T09:07:14;3.53;;;1.30;;
48651;SDS011;34442;52.362;-1.302;2024-01-07T09:09:41;2.42;;;1.25;;
48651;SDS011;34442;52.362;-1.302;2024-01-07T09:12:07;3.03;;;1.60;;
48651;SDS011;34442;52.362;-1.302;2024-01-07T09:14:32;1.67;;;0.95;;
48651;SDS011;34442;52.362;-1.302;2024-01-07T09:16:58;3.90;;;1.67;;
48651;SDS011;34442;52.362;-1.302;2024-01-07T09:19:23;2.67;;;1.30;;
48651;SDS011;34442;52.362;-1.302;2024-01-07T09:21:49;4.93;;;1.58;;
48651;SDS011;34442;52.362;-1.302;2024-01-07T09:24:14;4.90;;;1.98;;
48651;SDS011;34442;52.362;-1.302;2024-01-07T09:26:39;2.38;;;1.10;;
48651;SDS011;34442;52.362;-1.302;2024-01-07T09:29:05;3.55;;;1.50;;
48651;SDS011;34442;52.362;-1.302;2024-01-07T09:31:30;2.70;;;1.50;;
48651;SDS011;34442;52.362;-1.302;2024-01-07T09:33:56;1.63;;;1.10;;
48651;SDS011;34442;52.362;-1.302;2024-01-07T09:36:21;1.40;;;1.02;;
48651;SDS011;34442;52.362;-1.302;2024-01-07T09:38:47;2.45;;;1.02;;
48651;SDS011;34442;52.362;-1.302;2024-01-07T09:41:12;2.60;;;1.35;;
48651;SDS011;34442;52.362;-1.302;2024-01-07T09:43:38;4.03;;;2.40;;
48651;SDS011;34442;52.362;-1.302;2024-01-07T09:46:03;3.67;;;1.40;;
48651;SDS011;34442;52.362;-1.302;2024-01-07T09:48:29;4.00;;;1.42;;
48651;SDS011;34442;52.362;-1.302;2024-01-07T09:50:55;1.98;;;1.20;;
48651;SDS011;34442;52.362;-1.302;2024-01-07T09:53:23;4.85;;;1.70;;
48651;SDS011;34442;52.362;-1.302;2024-01-07T09:58:29;2.47;;;1.55;;
48651;SDS011;34442;52.362;-1.302;2024-01-07T10:00:55;2.95;;;1.27;;
48651;SDS011;34442;52.362;-1.302;2024-01-07T10:03:20;3.97;;;1.33;;
48651;SDS011;34442;52.362;-1.302;2024-01-07T10:05:45;2.85;;;1.40;;
48651;SDS011;34442;52.362;-1.302;2024-01-07T10:08:11;2.67;;;1.10;;
48651;SDS011;34442;52.362;-1.302;2024-01-07T10:10:36;5.65;;;1.70;;
48651;SDS011;34442;52.362;-1.302;2024-01-07T10:13:03;2.47;;;1.27;;
48651;SDS011;34442;52.362;-1.302;2024-01-07T10:15:28;2.85;;;1.48;;
48651;SDS011;34442;52.362;-1.302;2024-01-07T10:18:03;4.50;;;1.73;;
48651;SDS011;34442;52.362;-1.302;2024-01-07T10:20:31;2.60;;;1.20;;
48651;SDS011;34442;52.362;-1.302;2024-01-07T10:22:59;1.75;;;1.20;;
48651;SDS011;34442;52.362;-1.302;2024-01-07T10:25:25;4.55;;;1.75;;
48651;SDS011;34442;52.362;-1.302;2024-01-07T10:27:50;3.92;;;1.33;;
48651;SDS011;34442;52.362;-1.302;2024-01-07T10:30:17;2.45;;;1.38;;
48651;SDS011;34442;52.362;-1.302;2024-01-07T10:32:42;1.40;;;1.00;;
48651;SDS011;34442;52.362;-1.302;2024-01-07T10:35:10;3.30;;;1.27;;
48651;SDS011;34442;52.362;-1.302;2024-01-07T10:37:37;3.10;;;1.30;;
48651;SDS011;34442;52.362;-1.302;2024-01-07T10:40:05;2.45;;;1.33;;
48651;SDS011;34442;52.362;-1.302;2024-01-07T10:42:32;3.70;;;1.75;;
48651;SDS011;34442;52.362;-1.302;2024-01-07T10:44:59;2.47;;;1.58;;
48651;SDS011;34442;52.362;-1.302;2024-01-07T10:47:26;5.82;;;1.95;;
48651;SDS011;34442;52.362;-1.302;2024-01-07T10:49:54;3.75;;;1.50;;
48651;SDS011;34442;52.362;-1.302;2024-01-07T10:52:22;2.88;;;1.55;;
48651;SDS011;34442;52.362;-1.302;2024-01-07T10:54:48;4.50;;;1.10;;
48651;SDS011;34442;52.362;-1.302;2024-01-07T11:00:10;1.83;;;1.20;;
48651;SDS011;34442;52.362;-1.302;2024-01-07T11:05:29;4.90;;;1.90;;
48651;SDS011;34442;52.362;-1.302;2024-01-07T11:08:07;2.88;;;1.50;;
48651;SDS011;34442;52.362;-1.302;2024-01-07T11:10:45;4.63;;;1.70;;
48651;SDS011;34442;52.362;-1.302;2024-01-07T11:13:33;6.15;;;2.60;;
48651;SDS011;34442;52.362;-1.302;2024-01-07T11:16:09;1.55;;;1.00;;
48651;SDS011;34442;52.362;-1.302;2024-01-07T11:18:38;1.55;;;1.13;;
48651;SDS011;34442;52.362;-1.302;2024-01-07T11:21:05;4.80;;;1.90;;
48651;SDS011;34442;52.362;-1.302;2024-01-07T11:23:34;4.05;;;2.00;;
48651;SDS011;34442;52.362;-1.302;2024-01-07T11:26:08;3.20;;;1.50;;
48651;SDS011;34442;52.362;-1.302;2024-01-07T11:34:12;3.97;;;1.75;;
48651;SDS011;34442;52.362;-1.302;2024-01-07T11:37:04;5.80;;;1.95;;
48651;SDS011;34442;52.362;-1.302;2024-01-07T11:39:34;2.72;;;1.33;;
48651;SDS011;34442;52.362;-1.302;2024-01-07T11:42:01;5.72;;;1.73;;
48651;SDS011;34442;52.362;-1.302;2024-01-07T11:44:28;7.50;;;2.17;;
48651;SDS011;34442;52.362;-1.302;2024-01-07T11:46:55;2.42;;;1.00;;
48651;SDS011;34442;52.362;-1.302;2024-01-07T11:49:21;5.78;;;1.75;;
48651;SDS011;34442;52.362;-1.302;2024-01-07T11:51:46;6.03;;;1.80;;
48651;SDS011;34442;52.362;-1.302;2024-01-07T11:54:12;7.28;;;1.75;;
48651;SDS011;34442;52.362;-1.302;2024-01-07T11:56:37;4.60;;;1.60;;
48651;SDS011;34442;52.362;-1.302;2024-01-07T11:59:05;3.65;;;1.30;;
48651;SDS011;34442;52.362;-1.302;2024-01-07T12:01:31;3.50;;;1.30;;
48651;SDS011;34442;52.362;-1.302;2024-01-07T12:03:56;3.53;;;1.40;;
48651;SDS011;34442;52.362;-1.302;2024-01-07T12:06:22;2.67;;;1.10;;
48651;SDS011;34442;52.362;-1.302;2024-01-07T12:08:47;2.97;;;1.30;;
48651;SDS011;34442;52.362;-1.302;2024-01-07T12:11:13;5.35;;;1.60;;
48651;SDS011;34442;52.362;-1.302;2024-01-07T12:13:40;5.32;;;1.33;;
48651;SDS011;34442;52.362;-1.302;2024-01-07T12:16:06;3.88;;;1.20;;
48651;SDS011;34442;52.362;-1.302;2024-01-07T12:18:33;2.85;;;1.15;;
48651;SDS011;34442;52.362;-1.302;2024-01-07T12:21:01;2.03;;;1.10;;
48651;SDS011;34442;52.362;-1.302;2024-01-07T12:23:26;2.22;;;1.20;;
48651;SDS011;34442;52.362;-1.302;2024-01-07T12:25:52;4.28;;;1.50;;
48651;SDS011;34442;52.362;-1.302;2024-01-07T12:28:18;1.85;;;1.20;;
48651;SDS011;34442;52.362;-1.302;2024-01-07T12:30:44;2.45;;;1.15;;
48651;SDS011;34442;52.362;-1.302;2024-01-07T12:33:10;2.38;;;1.30;;
48651;SDS011;34442;52.362;-1.302;2024-01-07T12:35:36;3.25;;;1.45;;
48651;SDS011;34442;52.362;-1.302;2024-01-07T12:38:02;6.03;;;1.63;;
48651;SDS011;34442;52.362;-1.302;2024-01-07T12:40:27;2.83;;;1.25;;
48651;SDS011;34442;52.362;-1.302;2024-01-07T12:42:53;3.00;;;1.58;;
48651;SDS011;34442;52.362;-1.302;2024-01-07T12:45:18;2.60;;;1.10;;
48651;SDS011;34442;52.362;-1.302;2024-01-07T12:47:44;4.68;;;1.30;;
48651;SDS011;34442;52.362;-1.302;2024-01-07T12:50:11;3.55;;;1.10;;
48651;SDS011;34442;52.362;-1.302;2024-01-07T12:52:39;4.93;;;1.23;;
48651;SDS011;34442;52.362;-1.302;2024-01-07T12:55:05;2.60;;;1.38;;
48651;SDS011;34442;52.362;-1.302;2024-01-07T12:57:31;3.45;;;1.10;;
48651;SDS011;34442;52.362;-1.302;2024-01-07T12:59:57;4.43;;;1.30;;
48651;SDS011;34442;52.362;-1.302;2024-01-07T13:02:22;2.60;;;1.13;;
48651;SDS011;34442;52.362;-1.302;2024-01-07T13:04:48;3.15;;;1.20;;
48651;SDS011;34442;52.362;-1.302;2024-01-07T13:07:14;2.88;;;1.25;;
48651;SDS011;34442;52.362;-1.302;2024-01-07T13:09:40;3.75;;;1.17;;
48651;SDS011;34442;52.362;-1.302;2024-01-07T13:12:05;6.65;;;2.15;;
48651;SDS011;34442;52.362;-1.302;2024-01-07T13:14:31;2.42;;;1.20;;
48651;SDS011;34442;52.362;-1.302;2024-01-07T13:16:56;2.90;;;1.42;;
48651;SDS011;34442;52.362;-1.302;2024-01-07T13:19:21;4.00;;;1.30;;
48651;SDS011;34442;52.362;-1.302;2024-01-07T13:21:47;4.20;;;1.33;;
48651;SDS011;34442;52.362;-1.302;2024-01-07T13:24:12;4.38;;;1.10;;
48651;SDS011;34442;52.362;-1.302;2024-01-07T13:26:38;2.58;;;1.00;;
48651;SDS011;34442;52.362;-1.302;2024-01-07T13:29:03;4.15;;;1.40;;
48651;SDS011;34442;52.362;-1.302;2024-01-07T13:31:29;3.75;;;1.50;;
48651;SDS011;34442;52.362;-1.302;2024-01-07T13:33:54;4.95;;;1.30;;
48651;SDS011;34442;52.362;-1.302;2024-01-07T13:36:20;3.75;;;1.35;;
48651;SDS011;34442;52.362;-1.302;2024-01-07T13:38:45;2.40;;;1.10;;
48651;SDS011;34442;52.362;-1.302;2024-01-07T13:41:15;4.88;;;1.30;;
48651;SDS011;34442;52.362;-1.302;2024-01-07T13:43:41;3.95;;;1.30;;
48651;SDS011;34442;52.362;-1.302;2024-01-07T13:46:07;3.42;;;1.30;;
48651;SDS011;34442;52.362;-1.302;2024-01-07T13:48:33;2.83;;;1.42;;
48651;SDS011;34442;52.362;-1.302;2024-01-07T13:50:59;5.72;;;1.60;;
48651;SDS011;34442;52.362;-1.302;2024-01-07T13:53:25;3.13;;;1.40;;
48651;SDS011;34442;52.362;-1.302;2024-01-07T13:55:50;1.75;;;0.90;;
48651;SDS011;34442;52.362;-1.302;2024-01-07T13:58:16;2.25;;;1.10;;
48651;SDS011;34442;52.362;-1.302;2024-01-07T14:00:41;2.63;;;1.20;;
48651;SDS011;34442;52.362;-1.302;2024-01-07T14:03:06;2.42;;;1.33;;
48651;SDS011;34442;52.362;-1.302;2024-01-07T14:05:32;2.35;;;1.30;;
48651;SDS011;34442;52.362;-1.302;2024-01-07T14:07:58;2.90;;;1.08;;
48651;SDS011;34442;52.362;-1.302;2024-01-07T14:10:23;5.13;;;1.73;;
48651;SDS011;34442;52.362;-1.302;2024-01-07T14:12:48;6.07;;;1.60;;
48651;SDS011;34442;52.362;-1.302;2024-01-07T14:15:14;2.15;;;1.00;;
48651;SDS011;34442;52.362;-1.302;2024-01-07T14:17:39;2.75;;;1.42;;
48651;SDS011;34442;52.362;-1.302;2024-01-07T14:20:08;3.67;;;1.13;;
48651;SDS011;34442;52.362;-1.302;2024-01-07T14:22:33;4.22;;;1.23;;
48651;SDS011;34442;52.362;-1.302;2024-01-07T14:24:58;3.05;;;1.30;;
48651;SDS011;34442;52.362;-1.302;2024-01-07T14:27:24;3.80;;;1.30;;
48651;SDS011;34442;52.362;-1.302;2024-01-07T14:29:49;2.42;;;1.20;;
48651;SDS011;34442;52.362;-1.302;2024-01-07T14:32:15;2.80;;;1.20;;
48651;SDS011;34442;52.362;-1.302;2024-01-07T14:34:41;4.95;;;1.75;;
48651;SDS011;34442;52.362;-1.302;2024-01-07T14:37:16;2.53;;;1.40;;
48651;SDS011;34442;52.362;-1.302;2024-01-07T14:39:41;5.25;;;1.70;;